Portada
METAR-TAF:

METAR-TAF

Aeroports :

Bocas Town, Panamà

latitud: 09-21N, longitud: 082-15W, altitud: 3 m

Observació

L'informe es va fer fa 9 hores i 27 minuts, a les 22:00 UTC
Vent 7 kt del Nord-Est
Temperatura 28°C
Humitat 74%
Pressió 1010 hPa
Visibilitat 10 km o més
Núvols disperses a una alçada de 2000 ft

METAR: MPBO 242200Z 04007KT 9999 SCT020 28/23 Q1010

Hora: 02:27 (07:27 UTC)


TAF: manca

Observacions i pronòstics meteorològics de més de 4000 aeroports (METAR i TAF).

Les estacions disponibles són els punts grocs i vermells al mapa.

Posi el ratolí al punt desitjat per veure el nom de l'estació.

Feu clic per veure les observacions i els pronòstics meteorològics.

Per canviar el mapa: feu clic els botons verds amb una creu de color negre per apropar; al botó verd amb un guió per allunyar la imatge; o en les fletxes verdes per a mapes adjacents.


METAR-TAF: